Sea Girt, New Jersey
Current Conditions -  °F | °C
As of 10:55 AM on Friday 24 Oct 2014 (Local Time) from KBLM Reporting Station
Overcast Overcast  
Wind Chill: 55°   Ceiling: 3600
Heat Index: 55°   Visibility: 10mi
Dew Point: 41°   Wind: 18mph
Humidity: 58%   Direction: 320°NW
Pressure: 29.83"   Gusts: 22mph
Location:  40.13°N, 74.03°W
Report Text: KBLM 241455Z AUTO 32016G19KT 10SM OVC036 13/05 A2983 RMK AO1 52007
Loading
Personal Weather Stations






























Interactive Weather Map
Tropical Storm Tracking
New forecast layout! Learn more

10-Day Weather Forecast

Advertisements
Track Severe Weather on mobile